Time,TemperatureC,DewpointC,PressurehPa,WindDirection,WindDirectionDegrees,WindSpeedKMH,WindSpeedGustKMH,Humidity,HourlyPrecipMM,Conditions,Clouds,dailyrainMM,SolarRadiationWatts/m^2,UVIndex,SoftwareType,DateUTC
2021-10-24 00:03:25,-1.5,1.6,1029.6,NW,315,0,0,81.8,0.0,,,0.0,2,0,n/a,2021-10-23T22:03:25Z
2021-10-24 00:09:25,-1.7,1.6,1029.6,NW,315,0,0,82,0.0,,,0.0,2,0,n/a,2021-10-23T22:09:25Z
2021-10-24 00:12:25,-1.5,1.6,1029.6,NW,315,0,0,82.3,0.0,,,0.0,2,0,n/a,2021-10-23T22:12:25Z
2021-10-24 00:18:25,-1.5,1.5,1029.6,NW,315,0,0,82.4,0.0,,,0.0,2,0,n/a,2021-10-23T22:18:25Z
2021-10-24 00:24:21,-1.6,1.6,1029.6,NW,315,0,0,82.9,0.0,,,0.0,2,0,n/a,2021-10-23T22:24:21Z
2021-10-24 00:27:24,-1.7,1.4,1029.6,NW,315,0,0,82.3,0.0,,,0.0,2,0,n/a,2021-10-23T22:27:24Z
2021-10-24 00:33:25,-1.6,1.4,1029.6,NW,315,0,0,82.6,0.0,,,0.0,2,0,n/a,2021-10-23T22:33:25Z
2021-10-24 00:39:25,-1.8,1.4,1029.6,NW,315,0,0,82.8,0.0,,,0.0,2,0,n/a,2021-10-23T22:39:25Z
2021-10-24 00:42:25,-1.8,1.3,1029.6,NW,315,0,0,82.8,0.0,,,0.0,2,0,n/a,2021-10-23T22:42:25Z
2021-10-24 00:48:25,-1.9,1.3,1029.6,NW,315,0,0,82.8,0.0,,,0.0,2,0,n/a,2021-10-23T22:48:25Z
2021-10-24 00:54:25,-2,1.3,1029.3,NW,315,0,0,83.2,0.0,,,0.0,2,0,n/a,2021-10-23T22:54:25Z
2021-10-24 00:57:25,-2.1,1.3,1029.3,NW,315,0,0,83.4,0.0,,,0.0,0,0,n/a,2021-10-23T22:57:25Z
2021-10-24 01:03:24,-2,1.1,1029.3,NW,315,0,0,83.1,0.0,,,0.0,2,0,n/a,2021-10-23T23:03:24Z
2021-10-24 01:09:25,-2,1.2,1029.3,NW,315,0,0,83.3,0.0,,,0.0,2,0,n/a,2021-10-23T23:09:25Z
2021-10-24 01:12:26,-2.2,1,1029.1,NW,315,0,0,83.1,0.0,,,0.0,0,0,n/a,2021-10-23T23:12:26Z
2021-10-24 01:18:25,-2.1,1,1029.3,North,0,0,0,83,0.0,,,0.0,0,0,n/a,2021-10-23T23:18:25Z
2021-10-24 01:24:21,-2,1,1029.1,NW,315,0,0,83.3,0.0,,,0.0,2,0,n/a,2021-10-23T23:24:21Z
2021-10-24 01:33:24,-2.4,0.9,1029.1,NW,315,0,0,83.2,0.0,,,0.0,2,0,n/a,2021-10-23T23:33:24Z
2021-10-24 01:39:25,-2.4,0.8,1029.3,NW,315,0,0,83.4,0.0,,,0.0,2,0,n/a,2021-10-23T23:39:25Z
2021-10-24 01:42:21,-2.4,0.8,1029.1,NW,315,0,0,83.5,0.0,,,0.0,2,0,n/a,2021-10-23T23:42:21Z
2021-10-24 01:48:25,-2.5,0.6,1029.3,NW,315,0,0,82.9,0.0,,,0.0,2,0,n/a,2021-10-23T23:48:25Z
2021-10-24 01:54:21,-2.4,0.7,1029.3,NW,315,0,0,83.6,0.0,,,0.0,2,0,n/a,2021-10-23T23:54:21Z
2021-10-24 01:57:25,-2.4,0.6,1029.3,NW,315,0,0,83.4,0.0,,,0.0,0,0,n/a,2021-10-23T23:57:25Z
2021-10-24 02:03:21,-2.6,0.6,1029.3,NW,315,0,0,83.4,0.0,,,0.0,2,0,n/a,2021-10-24T00:03:21Z
2021-10-24 02:09:25,-2.5,0.5,1029.3,NW,315,0,0,83.3,0.0,,,0.0,2,0,n/a,2021-10-24T00:09:25Z
2021-10-24 02:12:21,-2.1,0.4,1029.1,NW,315,0,0,83.9,0.0,,,0.0,0,0,n/a,2021-10-24T00:12:21Z
2021-10-24 02:18:26,-2.3,0.5,1029.1,NW,315,0,0,83.7,0.0,,,0.0,0,0,n/a,2021-10-24T00:18:26Z
2021-10-24 02:24:25,-2.5,0.4,1029.1,NW,315,0,0,83.7,0.0,,,0.0,2,0,n/a,2021-10-24T00:24:25Z
2021-10-24 02:27:21,-2.3,0.4,1029.1,North,0,0,0,84.2,0.0,,,0.0,0,0,n/a,2021-10-24T00:27:21Z
2021-10-24 02:33:25,-2.7,0.4,1029.1,NW,315,0,0,83.8,0.0,,,0.0,2,0,n/a,2021-10-24T00:33:25Z
2021-10-24 02:39:21,-2.7,0.3,1029.1,NW,315,0,0,83.5,0.0,,,0.0,2,0,n/a,2021-10-24T00:39:21Z
2021-10-24 02:42:25,-2.5,0.3,1029.1,NW,315,0,0,83.8,0.0,,,0.0,2,0,n/a,2021-10-24T00:42:25Z
2021-10-24 02:48:22,-2.9,0.2,1029.1,NW,315,0,0,83.5,0.0,,,0.0,2,0,n/a,2021-10-24T00:48:22Z
2021-10-24 02:54:26,-2.8,0.1,1029.1,NW,315,0,0,83.8,0.0,,,0.0,2,0,n/a,2021-10-24T00:54:26Z
2021-10-24 02:57:24,-2.7,0.2,1029.1,NW,315,0,0,83.9,0.0,,,0.0,2,0,n/a,2021-10-24T00:57:24Z
2021-10-24 03:03:25,-2.8,0.2,1029.1,NW,315,0,0,84.1,0.0,,,0.0,2,0,n/a,2021-10-24T01:03:25Z
2021-10-24 03:09:25,-3,0,1029.1,NW,315,0,0,83.6,0.0,,,0.0,2,0,n/a,2021-10-24T01:09:25Z
2021-10-24 03:12:22,-3.1,-0.2,1029.1,North,0,0,0,83.2,0.0,,,0.0,0,0,n/a,2021-10-24T01:12:22Z
2021-10-24 03:18:25,-3.1,0.1,1029.1,NW,315,0,0,84,0.0,,,0.0,2,0,n/a,2021-10-24T01:18:25Z
2021-10-24 03:24:25,-3.3,-0.2,1029.1,NW,315,0,0,83.3,0.0,,,0.0,0,0,n/a,2021-10-24T01:24:25Z
2021-10-24 03:33:25,-3,-0.3,1029.1,NW,315,0,0,83.2,0.0,,,0.0,2,0,n/a,2021-10-24T01:33:25Z
2021-10-24 03:39:21,-3.1,-0.3,1029.1,North,0,0,0,83.5,0.0,,,0.0,2,0,n/a,2021-10-24T01:39:21Z
2021-10-24 03:42:25,-3.3,-0.2,1029.1,NW,315,0,0,84,0.0,,,0.0,2,0,n/a,2021-10-24T01:42:25Z
2021-10-24 03:48:25,-3.1,-0.2,1028.8,NW,315,0,0,84.1,0.0,,,0.0,2,0,n/a,2021-10-24T01:48:25Z
2021-10-24 03:54:25,-3.2,-0.2,1028.8,NW,315,0,0,84.3,0.0,,,0.0,2,0,n/a,2021-10-24T01:54:25Z
2021-10-24 03:57:25,-3.2,-0.1,1028.8,NW,315,0,0,84.4,0.0,,,0.0,2,0,n/a,2021-10-24T01:57:25Z
2021-10-24 04:03:21,-3.4,-0.3,1028.5,NW,315,0,0,83.9,0.0,,,0.0,2,0,n/a,2021-10-24T02:03:21Z
2021-10-24 04:09:25,-3.3,-0.4,1028.5,NW,315,0,0,84.1,0.0,,,0.0,2,0,n/a,2021-10-24T02:09:25Z
2021-10-24 04:12:25,-3.4,-0.3,1028.5,NW,315,0,0,84.7,0.0,,,0.0,0,0,n/a,2021-10-24T02:12:25Z
2021-10-24 04:18:22,-3.5,-0.5,1028.5,North,0,0,0,84,0.0,,,0.0,0,0,n/a,2021-10-24T02:18:22Z
2021-10-24 04:24:25,-3,-0.5,1028.5,NW,315,0,0,84.3,0.0,,,0.0,2,0,n/a,2021-10-24T02:24:25Z
2021-10-24 04:27:21,-3.1,-0.5,1028.5,NW,315,0,0,84.6,0.0,,,0.0,2,0,n/a,2021-10-24T02:27:21Z
2021-10-24 04:33:25,-3.4,-0.4,1028.5,NW,315,0,0,84.7,0.0,,,0.0,2,0,n/a,2021-10-24T02:33:25Z
2021-10-24 04:36:21,-3.4,-0.4,1028.5,NW,315,0,0,84.9,0.0,,,0.0,2,0,n/a,2021-10-24T02:36:21Z
2021-10-24 04:42:25,-3.3,-0.7,1028.5,NW,315,0,0,84.1,0.0,,,0.0,2,0,n/a,2021-10-24T02:42:25Z
2021-10-24 04:48:25,-3.3,-0.4,1028.5,NW,315,0,0,84.8,0.0,,,0.0,0,0,n/a,2021-10-24T02:48:25Z
2021-10-24 04:51:26,-3.5,-0.5,1028.5,NW,315,0,0,84.9,0.0,,,0.0,2,0,n/a,2021-10-24T02:51:26Z
2021-10-24 04:57:25,-3.6,-0.7,1028.5,NW,315,0,0,84.3,0.0,,,0.0,2,0,n/a,2021-10-24T02:57:25Z
2021-10-24 05:03:25,-3.7,-0.6,1028.5,NW,315,0,0,84.6,0.0,,,0.0,2,0,n/a,2021-10-24T03:03:25Z
2021-10-24 05:09:25,-3.5,-0.7,1028.3,NW,315,0,0,84.2,0.0,,,0.0,2,0,n/a,2021-10-24T03:09:25Z